Time;durP1;ratioP1;P1;durP2;ratioP2;P2;SDS_P1;SDS_P2;PMS_P1;PMS_P2;Temp;Humidity;BMP_temperature;BMP_pressure;BME280_temperature;BME280_humidity;BME280_pressure;Samples;Min_cycle;Max_cycle;Signal;HPM_P1;HPM_P2
2022/08/12 00:44:59;;;;;;;5.75;3.55;;;20.20;99.90;;;;;;4979848;28;20066;-76
2022/08/12 00:47:25;;;;;;;5.88;4.72;;;20.20;99.90;;;;;;4990610;28;20493;-81
2022/08/12 00:49:53;;;;;;;4.95;3.78;;;20.20;99.90;;;;;;4939159;28;20058;-81
2022/08/12 00:52:20;;;;;;;4.05;3.38;;;20.20;99.90;;;;;;4956276;28;20055;-81
2022/08/12 00:54:49;;;;;;;5.45;3.70;;;20.20;99.90;;;;;;4972322;28;20054;-81
2022/08/12 00:57:21;;;;;;;4.82;3.58;;;20.20;99.90;;;;;;4988406;28;20035;-81
2022/08/12 00:59:53;;;;;;;4.63;3.60;;;20.20;99.90;;;;;;4975769;28;20039;-81
2022/08/12 01:02:42;;;;;;;5.20;3.83;;;20.20;99.90;;;;;;4989648;28;20074;-81
2022/08/12 01:13:47;;;;;;;6.20;3.85;;;20.20;99.90;;;;;;4986998;28;20051;-79
2022/08/12 01:16:16;;;;;;;5.68;3.47;;;20.20;99.90;;;;;;4954536;28;20035;-80
2022/08/12 01:18:43;;;;;;;4.88;3.90;;;20.20;99.90;;;;;;4977698;28;20058;-80
2022/08/12 01:21:34;;;;;;;5.15;3.38;;;20.30;99.90;;;;;;4968922;28;20134;-80
2022/08/12 01:24:25;;;;;;;4.00;3.03;;;20.20;99.90;;;;;;4976989;28;20145;-80
2022/08/12 01:26:53;;;;;;;5.70;3.47;;;20.20;99.90;;;;;;4987518;28;20042;-80
2022/08/12 01:29:25;;;;;;;5.53;4.00;;;20.10;99.90;;;;;;4966963;28;20129;-80
2022/08/12 01:31:55;;;;;;;5.80;3.63;;;20.20;99.90;;;;;;4969647;28;20444;-80
2022/08/12 01:34:32;;;;;;;4.88;4.18;;;20.10;99.90;;;;;;4972413;28;20109;-80
2022/08/12 01:37:02;;;;;;;4.60;3.53;;;20.10;99.90;;;;;;4957814;28;20375;-80
2022/08/12 01:39:45;;;;;;;5.15;3.53;;;20.20;99.90;;;;;;4968436;28;20081;-81
2022/08/12 01:42:15;;;;;;;6.13;4.03;;;20.20;99.90;;;;;;4971526;28;20082;-80
2022/08/12 01:44:43;;;;;;;5.80;4.53;;;20.10;99.90;;;;;;4989531;28;20248;-80
2022/08/12 01:47:29;;;;;;;7.65;4.80;;;20.10;99.90;;;;;;4957566;28;20130;-80
2022/08/12 01:50:10;;;;;;;6.75;4.40;;;20.10;99.90;;;;;;4947069;28;20113;-82
2022/08/12 01:52:53;;;;;;;5.85;4.50;;;20.10;99.90;;;;;;4987221;28;20038;-81
2022/08/12 01:55:23;;;;;;;6.53;4.05;;;20.10;99.90;;;;;;4972855;28;20090;-81
2022/08/12 01:58:25;;;;;;;5.88;4.30;;;20.00;99.90;;;;;;4987812;28;20080;-80
2022/08/12 02:01:06;;;;;;;4.97;3.97;;;20.00;99.90;;;;;;4970296;28;20082;-80
2022/08/12 02:13:00;;;;;;;5.97;5.05;;;19.90;99.90;;;;;;4985865;28;20062;-81
2022/08/12 02:16:06;;;;;;;8.15;4.53;;;19.90;99.90;;;;;;4970525;28;20093;-81
2022/08/12 02:19:04;;;;;;;6.25;4.10;;;19.90;99.90;;;;;;4953719;28;20068;-80
2022/08/12 02:21:44;;;;;;;5.88;4.18;;;19.90;99.90;;;;;;4986814;28;20497;-81
2022/08/12 02:24:14;;;;;;;5.32;4.10;;;19.90;99.90;;;;;;4971886;28;20528;-80
2022/08/12 02:26:43;;;;;;;6.43;4.30;;;19.80;99.90;;;;;;4976595;28;20130;-81
2022/08/12 02:29:11;;;;;;;5.05;4.00;;;19.80;99.90;;;;;;4957918;28;20054;-80
2022/08/12 02:31:38;;;;;;;6.78;4.55;;;19.80;99.90;;;;;;4965771;28;20125;-80
2022/08/12 02:34:05;;;;;;;8.98;4.75;;;19.80;99.90;;;;;;4954454;28;20227;-80
2022/08/12 02:36:33;;;;;;;6.55;4.50;;;19.80;99.90;;;;;;4970008;28;20046;-80
2022/08/12 02:38:59;;;;;;;9.70;5.60;;;19.80;99.90;;;;;;4952117;28;20057;-79
2022/08/12 02:41:28;;;;;;;7.68;4.85;;;19.80;99.90;;;;;;4952104;28;20042;-80
2022/08/12 02:43:59;;;;;;;7.55;4.30;;;19.70;99.90;;;;;;4968896;28;20054;-81
2022/08/12 02:46:29;;;;;;;5.97;4.47;;;19.80;99.90;;;;;;4968547;28;20047;-81
2022/08/12 02:49:14;;;;;;;7.03;4.93;;;19.80;99.90;;;;;;4985133;28;20501;-81
2022/08/12 02:51:43;;;;;;;7.13;5.45;;;19.80;99.90;;;;;;4988020;28;20077;-81
2022/08/12 02:54:09;;;;;;;10.32;5.38;;;19.80;99.90;;;;;;4987868;28;20149;-81
2022/08/12 02:56:39;;;;;;;6.00;5.40;;;19.90;99.90;;;;;;4985766;28;20071;-81
2022/08/12 02:59:09;;;;;;;8.65;6.28;;;19.70;99.90;;;;;;5000281;28;20094;-82
2022/08/12 03:01:41;;;;;;;7.88;6.00;;;19.80;99.90;;;;;;4986473;28;20167;-81
2022/08/12 03:04:11;;;;;;;7.15;6.28;;;19.70;99.90;;;;;;4969877;28;20150;-80
2022/08/12 03:06:42;;;;;;;7.20;5.63;;;19.70;99.90;;;;;;4956020;28;20157;-81
2022/08/12 03:09:13;;;;;;;9.20;6.60;;;20.20;99.90;;;;;;4955470;28;20140;-81
2022/08/12 03:12:08;;;;;;;8.23;6.57;;;19.60;99.90;;;;;;4964997;28;20058;-81
2022/08/12 03:14:34;;;;;;;8.77;6.07;;;19.60;99.90;;;;;;4961871;28;22829;-81
2022/08/12 03:17:42;;;;;;;10.73;7.80;;;19.60;99.90;;;;;;4980776;28;20049;-80
2022/08/12 03:20:14;;;;;;;8.10;6.82;;;19.60;99.90;;;;;;4965053;28;20920;-81
2022/08/12 03:22:42;;;;;;;9.02;6.88;;;19.50;99.90;;;;;;4975901;28;20484;-80
2022/08/12 03:25:14;;;;;;;7.70;6.90;;;19.50;99.90;;;;;;4948624;28;20413;-79
2022/08/12 03:27:48;;;;;;;11.68;5.88;;;19.50;99.90;;;;;;4990596;28;20043;-80
2022/08/12 03:30:16;;;;;;;8.77;6.13;;;19.50;99.90;;;;;;4961070;28;20105;-80
2022/08/12 03:32:49;;;;;;;10.55;7.30;;;19.50;99.90;;;;;;4944909;28;20051;-80
2022/08/12 03:35:24;;;;;;;9.50;7.45;;;19.50;99.90;;;;;;4989522;28;20086;-80
2022/08/12 03:37:50;;;;;;;7.63;6.43;;;19.50;99.90;;;;;;4957682;28;20050;-80
2022/08/12 04:02:25;;;;;;;7.40;5.38;;;19.40;99.90;;;;;;4989489;28;20047;-81
2022/08/12 04:04:51;;;;;;;5.68;4.72;;;19.40;99.90;;;;;;4936740;28;20493;-80
2022/08/12 04:07:17;;;;;;;7.72;5.43;;;19.30;99.90;;;;;;4972477;28;20036;-80
2022/08/12 04:09:45;;;;;;;6.57;5.05;;;19.30;99.90;;;;;;4992499;28;20106;-80
2022/08/12 04:14:57;;;;;;;5.90;4.80;;;19.30;99.90;;;;;;4974997;28;20051;-81
2022/08/12 04:17:26;;;;;;;6.00;5.03;;;19.30;99.90;;;;;;4980253;28;20035;-81
2022/08/12 04:19:56;;;;;;;6.35;4.85;;;19.30;99.90;;;;;;4990563;28;20049;-81
2022/08/12 04:22:28;;;;;;;7.72;5.32;;;19.30;99.90;;;;;;4971589;28;20137;-81
2022/08/12 04:24:54;;;;;;;10.07;5.80;;;19.30;99.90;;;;;;4954842;28;20482;-80
2022/08/12 04:27:20;;;;;;;6.88;4.90;;;19.30;99.90;;;;;;4990223;28;20431;-81
2022/08/12 04:29:45;;;;;;;6.35;4.85;;;19.30;99.90;;;;;;4972895;28;20784;-80
2022/08/12 04:32:11;;;;;;;5.20;4.32;;;19.30;99.90;;;;;;4939732;28;20047;-80
2022/08/12 04:34:38;;;;;;;6.88;4.63;;;19.20;99.90;;;;;;4954923;28;20161;-81
2022/08/12 04:37:04;;;;;;;6.60;4.90;;;19.20;99.90;;;;;;4987266;28;20083;-80
2022/08/12 04:39:30;;;;;;;7.60;4.78;;;19.30;99.90;;;;;;4967737;28;20167;-80
2022/08/12 04:41:59;;;;;;;6.32;4.85;;;19.30;99.90;;;;;;4956998;28;20059;-80
2022/08/12 04:44:26;;;;;;;7.60;4.40;;;19.20;99.90;;;;;;4972064;28;20222;-80
2022/08/12 04:46:53;;;;;;;6.57;4.22;;;19.30;99.90;;;;;;4986535;28;20051;-80
2022/08/12 04:49:20;;;;;;;6.00;4.40;;;19.30;99.90;;;;;;4938041;28;20065;-80
2022/08/12 04:51:46;;;;;;;7.28;4.00;;;19.30;99.90;;;;;;4970934;28;20346;-80
2022/08/12 04:54:13;;;;;;;7.40;4.40;;;19.30;99.90;;;;;;4941904;28;20051;-80
2022/08/12 04:56:40;;;;;;;5.53;4.15;;;19.30;99.90;;;;;;4972612;28;20055;-81
2022/08/12 04:59:06;;;;;;;6.75;4.07;;;19.30;99.90;;;;;;4970793;28;20129;-81
2022/08/12 05:01:32;;;;;;;7.80;4.50;;;19.30;99.90;;;;;;4957411;28;20050;-80
2022/08/12 05:03:58;;;;;;;8.43;4.13;;;19.30;99.90;;;;;;4989142;28;20076;-78
2022/08/12 05:06:25;;;;;;;6.10;4.07;;;19.30;99.90;;;;;;4964737;28;20038;-81
2022/08/12 05:08:53;;;;;;;6.18;4.30;;;19.40;99.90;;;;;;4955714;28;20110;-80
2022/08/12 05:11:26;;;;;;;6.65;4.10;;;19.40;99.90;;;;;;4955069;28;20047;-80
2022/08/12 05:13:59;;;;;;;7.05;4.25;;;19.40;99.90;;;;;;4973375;28;20051;-82
2022/08/12 05:16:25;;;;;;;6.30;4.22;;;19.40;99.90;;;;;;4989375;28;20050;-81
2022/08/12 05:18:51;;;;;;;6.25;3.80;;;19.40;99.90;;;;;;4957028;28;20051;-81
2022/08/12 05:21:17;;;;;;;7.25;4.10;;;19.40;99.90;;;;;;4956311;28;20049;-81
2022/08/12 05:23:43;;;;;;;5.22;3.80;;;19.50;99.90;;;;;;4944843;28;20047;-81
2022/08/12 05:26:09;;;;;;;6.43;4.57;;;19.50;99.90;;;;;;4984090;28;20378;-81
2022/08/12 05:28:36;;;;;;;5.10;4.15;;;19.50;99.90;;;;;;4955622;28;20054;-80
2022/08/12 05:31:03;;;;;;;6.35;4.18;;;19.50;99.90;;;;;;4956996;28;20054;-81
2022/08/12 05:33:47;;;;;;;5.22;4.35;;;19.50;99.90;;;;;;4972814;28;20198;-81
2022/08/12 05:36:15;;;;;;;6.18;4.07;;;19.50;99.90;;;;;;4979384;28;20063;-81
2022/08/12 05:38:57;;;;;;;8.57;4.28;;;19.60;99.90;;;;;;4981716;28;20078;-77
2022/08/12 05:41:31;;;;;;;5.45;3.70;;;19.60;99.90;;;;;;4972745;28;20416;-79
2022/08/12 05:44:02;;;;;;;8.88;3.90;;;19.60;99.90;;;;;;4973500;28;20090;-77
2022/08/12 05:46:29;;;;;;;7.43;4.13;;;19.60;99.90;;;;;;4971830;28;20116;-77
2022/08/12 05:48:59;;;;;;;4.72;3.42;;;19.60;99.90;;;;;;4968229;28;20082;-81
2022/08/12 05:51:27;;;;;;;7.15;4.22;;;19.70;99.90;;;;;;4979779;28;20102;-78
2022/08/12 05:53:54;;;;;;;6.05;3.50;;;19.70;99.90;;;;;;4965463;28;20058;-80
2022/08/12 05:56:23;;;;;;;6.63;3.88;;;19.70;99.90;;;;;;4939827;28;20054;-79
2022/08/12 05:58:50;;;;;;;4.15;3.30;;;19.70;99.90;;;;;;4984740;28;20528;-79
2022/08/12 06:01:17;;;;;;;6.30;3.85;;;19.80;99.90;;;;;;4982597;28;20079;-79
2022/08/12 06:03:43;;;;;;;5.10;3.50;;;19.80;99.90;;;;;;4967612;28;20070;-80
2022/08/12 06:06:10;;;;;;;6.95;3.80;;;19.80;99.90;;;;;;4982182;28;20090;-79
2022/08/12 06:08:37;;;;;;;5.30;3.78;;;19.90;99.90;;;;;;4961583;28;20047;-79
2022/08/12 06:11:05;;;;;;;6.28;3.80;;;19.90;99.90;;;;;;4967817;28;20058;-79
2022/08/12 06:13:37;;;;;;;5.53;3.40;;;20.00;99.90;;;;;;4967150;28;20481;-79
2022/08/12 06:16:05;;;;;;;4.30;2.75;;;20.10;99.90;;;;;;4953823;28;20122;-79
2022/08/12 06:18:31;;;;;;;5.38;3.85;;;20.20;99.90;;;;;;4951716;28;20122;-78
2022/08/12 06:20:59;;;;;;;7.57;3.40;;;20.20;99.90;;;;;;4938260;28;20157;-78
2022/08/12 06:23:27;;;;;;;5.95;3.20;;;20.30;99.90;;;;;;4954278;28;20511;-80
2022/08/12 06:25:56;;;;;;;5.57;3.28;;;20.40;99.90;;;;;;4953814;28;20405;-80
2022/08/12 06:28:23;;;;;;;4.18;2.97;;;20.70;99.90;;;;;;4984864;28;20082;-78
2022/08/12 06:30:49;;;;;;;6.82;3.35;;;20.70;99.90;;;;;;4970721;28;20051;-78
2022/08/12 06:33:17;;;;;;;5.15;3.55;;;20.70;99.90;;;;;;4948917;28;20050;-79
2022/08/12 06:35:43;;;;;;;5.68;3.42;;;20.90;99.90;;;;;;4966846;28;20079;-81
2022/08/12 06:38:20;;;;;;;4.47;3.03;;;21.00;99.90;;;;;;4958398;28;20135;-79
2022/08/12 06:43:33;;;;;;;4.43;3.00;;;21.30;99.90;;;;;;4989849;28;20374;-78
2022/08/12 06:45:59;;;;;;;5.68;2.47;;;21.50;99.90;;;;;;4943285;28;20059;-80
2022/08/12 06:48:27;;;;;;;4.90;2.40;;;21.60;99.90;;;;;;4963467;28;20058;-80
2022/08/12 06:50:57;;;;;;;5.00;2.15;;;21.70;99.90;;;;;;4979293;28;20069;-80
2022/08/12 06:53:25;;;;;;;3.28;2.30;;;21.90;99.90;;;;;;4979401;28;20050;-79
2022/08/12 06:55:55;;;;;;;3.90;2.67;;;22.10;99.90;;;;;;4977087;28;20050;-80
2022/08/12 06:58:22;;;;;;;4.45;2.50;;;22.20;99.90;;;;;;4964658;28;20659;-79
2022/08/12 07:00:49;;;;;;;5.53;2.30;;;22.40;99.90;;;;;;4972100;28;20051;-80
2022/08/12 07:03:24;;;;;;;4.38;2.45;;;22.50;99.90;;;;;;4979138;28;20054;-80
2022/08/12 07:05:50;;;;;;;5.13;2.10;;;22.70;99.90;;;;;;4949067;28;20057;-81
2022/08/12 07:08:16;;;;;;;3.92;2.35;;;22.90;99.90;;;;;;4997731;28;20047;-79
2022/08/12 07:10:52;;;;;;;3.83;2.10;;;23.00;99.90;;;;;;4949128;28;20050;-80
2022/08/12 07:13:19;;;;;;;3.42;2.20;;;23.20;99.90;;;;;;4980684;28;20078;-80
2022/08/12 07:15:45;;;;;;;4.95;2.75;;;23.40;99.90;;;;;;4976691;28;20050;-79
2022/08/12 07:18:18;;;;;;;3.80;2.08;;;23.50;99.90;;;;;;4932537;28;20047;-80
2022/08/12 07:20:49;;;;;;;5.40;2.00;;;23.70;99.90;;;;;;4932539;28;20051;-81
2022/08/12 07:23:16;;;;;;;5.55;2.00;;;23.90;99.90;;;;;;4946022;28;20110;-82
2022/08/12 07:25:42;;;;;;;4.22;2.10;;;24.10;99.90;;;;;;4945422;28;20053;-82
2022/08/12 07:28:14;;;;;;;3.50;1.90;;;24.20;99.90;;;;;;4930414;28;20484;-80
2022/08/12 07:30:43;;;;;;;4.90;2.00;;;24.30;99.90;;;;;;4979846;28;20054;-81
2022/08/12 07:33:11;;;;;;;3.33;1.90;;;24.50;99.90;;;;;;4980939;28;20342;-81
2022/08/12 07:35:42;;;;;;;3.40;1.92;;;24.70;99.90;;;;;;4993272;28;20043;-81
2022/08/12 07:38:25;;;;;;;3.00;1.80;;;24.90;99.90;;;;;;4947272;28;20055;-80
2022/08/12 07:41:09;;;;;;;4.63;1.63;;;25.10;99.90;;;;;;4993966;28;20051;-80
2022/08/12 07:43:38;;;;;;;4.78;2.00;;;25.30;99.90;;;;;;4992642;28;20126;-80
2022/08/12 07:46:06;;;;;;;4.78;1.63;;;25.50;99.90;;;;;;4961516;28;20050;-81
2022/08/12 07:48:45;;;;;;;4.30;1.70;;;25.70;99.90;;;;;;4978517;28;20066;-81
2022/08/12 07:51:12;;;;;;;3.72;1.42;;;25.90;99.90;;;;;;4978009;28;20058;-81
2022/08/12 07:53:39;;;;;;;3.03;1.90;;;26.20;99.90;;;;;;4997473;28;20347;-82
2022/08/12 07:56:08;;;;;;;5.35;1.80;;;26.40;99.90;;;;;;4997009;28;20131;-83
2022/08/12 07:58:38;;;;;;;5.03;1.80;;;26.70;99.90;;;;;;4980758;28;20492;-83
2022/08/12 08:01:05;;;;;;;5.75;1.70;;;26.90;99.90;;;;;;4979302;28;20730;-82
2022/08/12 08:03:31;;;;;;;2.42;1.50;;;27.10;99.90;;;;;;4969005;28;20046;-84
2022/08/12 08:05:57;;;;;;;2.85;1.70;;;27.30;99.90;;;;;;4962529;28;20078;-82
2022/08/12 08:08:26;;;;;;;3.25;1.40;;;27.50;99.90;;;;;;4963452;28;20558;-84
2022/08/12 08:12:52;;;;;;;3.97;1.50;;;27.70;99.90;;;;;;4994905;28;20046;-85
2022/08/12 08:13:43;;;;;;;4.07;1.65;;;27.90;99.90;;;;;;4997356;28;20082;-84
2022/08/12 08:16:09;;;;;;;4.55;1.70;;;28.20;99.90;;;;;;4947256;28;20052;-83
2022/08/12 08:18:36;;;;;;;4.03;1.48;;;28.40;99.90;;;;;;4947504;28;20047;-83
2022/08/12 08:21:03;;;;;;;5.85;1.70;;;28.60;99.90;;;;;;4991635;28;20118;-83
2022/08/12 08:26:14;;;;;;;2.72;1.40;;;28.90;99.90;;;;;;4953338;28;20149;-82
2022/08/12 08:28:41;;;;;;;6.80;1.73;;;29.20;99.60;;;;;;4997284;28;20085;-82
2022/08/12 08:31:07;;;;;;;4.50;1.90;;;29.30;98.80;;;;;;4994478;28;20087;-82
2022/08/12 08:33:33;;;;;;;3.03;1.88;;;29.40;98.10;;;;;;4962717;28;20089;-82
2022/08/12 08:35:59;;;;;;;5.82;1.60;;;29.50;98.10;;;;;;4960751;28;20464;-77
2022/08/12 08:38:25;;;;;;;4.90;1.42;;;29.80;97.50;;;;;;4957295;28;20111;-83
2022/08/12 08:43:35;;;;;;;3.25;1.65;;;30.30;96.90;;;;;;4975891;28;20050;-82
2022/08/12 08:46:04;;;;;;;4.32;1.60;;;30.50;96.50;;;;;;4961911;28;20050;-78
2022/08/12 08:48:33;;;;;;;2.70;1.50;;;30.70;95.70;;;;;;4977925;28;20066;-79
2022/08/12 08:50:59;;;;;;;2.80;1.40;;;30.90;94.60;;;;;;4957636;28;20672;-78
2022/08/12 08:53:25;;;;;;;5.43;1.90;;;31.00;94.70;;;;;;4975401;28;20050;-80
2022/08/12 08:55:53;;;;;;;5.65;1.67;;;31.20;93.60;;;;;;4992530;28;20039;-80
2022/08/12 08:58:22;;;;;;;3.80;1.77;;;31.40;93.10;;;;;;4977101;28;20065;-80
2022/08/12 09:00:50;;;;;;;3.95;1.35;;;31.60;92.70;;;;;;4948398;28;20046;-81
2022/08/12 09:03:17;;;;;;;3.47;1.70;;;31.80;92.70;;;;;;4990956;28;20050;-79
2022/08/12 09:05:43;;;;;;;6.10;1.70;;;32.00;91.80;;;;;;4993704;28;20606;-79
2022/08/12 09:08:09;;;;;;;2.70;1.60;;;32.20;91.40;;;;;;4974610;28;20062;-81
2022/08/12 09:10:37;;;;;;;4.07;1.40;;;32.50;91.00;;;;;;4991811;28;20045;-79
2022/08/12 09:15:48;;;;;;;3.90;1.40;;;32.90;90.00;;;;;;4973632;28;20047;-80
2022/08/12 09:18:17;;;;;;;3.15;1.48;;;33.20;89.00;;;;;;4979744;28;20042;-79
2022/08/12 09:20:43;;;;;;;4.40;1.33;;;33.20;87.30;;;;;;4977036;28;20050;-78
2022/08/12 09:23:11;;;;;;;3.88;1.63;;;33.40;85.80;;;;;;4947541;28;20133;-77
2022/08/12 09:25:38;;;;;;;2.90;1.60;;;33.60;84.20;;;;;;4991168;28;20470;-77
2022/08/12 09:28:07;;;;;;;3.50;1.67;;;33.80;83.20;;;;;;4958586;28;20096;-77
2022/08/12 09:30:33;;;;;;;5.60;1.45;;;34.00;80.50;;;;;;4961481;28;20042;-78
2022/08/12 09:32:59;;;;;;;5.45;1.73;;;34.20;79.30;;;;;;4989863;28;20057;-77
2022/08/12 09:35:32;;;;;;;3.30;1.42;;;34.30;78.30;;;;;;4976228;28;20485;-77
2022/08/12 09:38:01;;;;;;;3.50;1.77;;;34.50;78.40;;;;;;4964828;28;20046;-77
2022/08/12 09:40:28;;;;;;;3.45;1.50;;;34.70;76.20;;;;;;4947763;28;20085;-78
2022/08/12 09:45:40;;;;;;;4.60;1.45;;;35.00;73.50;;;;;;4989828;28;20042;-78
2022/08/12 09:48:07;;;;;;;3.72;1.23;;;35.20;73.40;;;;;;4956590;28;20051;-78
2022/08/12 09:50:34;;;;;;;4.70;1.40;;;35.50;72.40;;;;;;4943916;28;20062;-78
2022/08/12 09:53:04;;;;;;;2.80;1.33;;;35.50;70.00;;;;;;4942352;28;20047;-78
2022/08/12 09:55:31;;;;;;;2.42;1.30;;;35.60;69.60;;;;;;4974970;28;20054;-78
2022/08/12 09:57:57;;;;;;;2.05;1.45;;;35.50;69.10;;;;;;4957124;28;20511;-78
2022/08/12 10:00:25;;;;;;;2.55;1.25;;;35.40;68.70;;;;;;4974022;28;20046;-81
2022/08/12 10:02:59;;;;;;;2.80;1.35;;;35.50;69.10;;;;;;4969987;28;20112;-78
2022/08/12 10:05:25;;;;;;;2.43;1.20;;;35.60;68.00;;;;;;4975097;28;20126;-80
2022/08/12 10:07:51;;;;;;;7.25;1.55;;;35.70;68.10;;;;;;4974333;28;20049;-80
2022/08/12 10:10:18;;;;;;;4.05;1.30;;;35.90;67.30;;;;;;4973863;28;20570;-80
2022/08/12 10:15:30;;;;;;;3.65;1.30;;;36.00;65.00;;;;;;4952279;28;20050;-81
2022/08/12 10:17:56;;;;;;;3.40;1.40;;;36.00;64.00;;;;;;4943711;28;20051;-80
2022/08/12 10:20:21;;;;;;;4.15;1.27;;;36.00;64.00;;;;;;4975562;28;20054;-79
2022/08/12 10:22:57;;;;;;;2.38;1.13;;;36.00;63.60;;;;;;4974701;28;20043;-81
2022/08/12 10:30:52;;;;;;;2.20;1.48;;;36.40;63.60;;;;;;4996140;28;20056;-79
2022/08/12 10:33:18;;;;;;;4.63;1.40;;;36.50;62.90;;;;;;4997942;28;20054;-79
2022/08/12 10:35:43;;;;;;;4.30;1.60;;;36.60;62.60;;;;;;4949502;28;20385;-78
2022/08/12 10:38:16;;;;;;;4.22;1.50;;;36.60;61.90;;;;;;4996699;28;20046;-79
2022/08/12 10:43:42;;;;;;;;;;;36.70;60.00;;;;;;4983878;28;20054;-79
2022/08/12 10:46:18;;;;;;;3.08;1.23;;;36.80;60.60;;;;;;4979293;28;19940;-78
2022/08/12 10:48:46;;;;;;;3.40;1.17;;;37.00;61.00;;;;;;4965857;28;20077;-79
2022/08/12 10:51:14;;;;;;;2.00;1.30;;;37.10;60.40;;;;;;4999365;28;20185;-79
2022/08/12 10:53:43;;;;;;;2.03;1.30;;;37.20;59.40;;;;;;4951048;28;20054;-81
2022/08/12 10:56:10;;;;;;;3.17;1.70;;;37.30;59.20;;;;;;4983572;28;20129;-79
2022/08/12 10:58:37;;;;;;;2.75;1.50;;;37.30;59.00;;;;;;4979441;28;20129;-79
2022/08/12 11:01:04;;;;;;;2.53;1.63;;;37.40;58.60;;;;;;4969183;28;20495;-79
2022/08/12 11:03:36;;;;;;;3.50;1.60;;;37.60;58.00;;;;;;4947969;28;20046;-80
2022/08/12 11:06:07;;;;;;;4.18;1.80;;;37.60;57.40;;;;;;4964577;28;20043;-80
2022/08/12 11:08:36;;;;;;;4.38;1.40;;;37.70;56.70;;;;;;4996879;28;20046;-78
2022/08/12 11:11:08;;;;;;;5.28;1.80;;;37.80;56.50;;;;;;4995207;28;20053;-78
2022/08/12 11:13:35;;;;;;;4.22;1.45;;;37.70;56.30;;;;;;4955723;28;20051;-81
2022/08/12 11:16:01;;;;;;;2.38;1.20;;;37.80;56.50;;;;;;4974993;28;20184;-77
2022/08/12 11:18:27;;;;;;;7.20;1.60;;;37.90;56.10;;;;;;4976855;28;20117;-77
2022/08/12 11:20:53;;;;;;;3.83;2.00;;;37.90;55.80;;;;;;4970457;28;20061;-77
2022/08/12 11:23:20;;;;;;;3.97;1.38;;;38.10;55.40;;;;;;4929506;28;20046;-77
2022/08/12 11:25:47;;;;;;;2.08;1.48;;;38.30;55.00;;;;;;4994940;28;20407;-75
2022/08/12 11:28:14;;;;;;;2.65;1.40;;;38.50;55.30;;;;;;4996916;28;20049;-78
2022/08/12 11:30:40;;;;;;;5.15;1.20;;;38.60;54.20;;;;;;4999046;28;20050;-77
2022/08/12 11:33:07;;;;;;;2.40;1.20;;;38.50;53.80;;;;;;4982020;28;20054;-78
2022/08/12 11:35:35;;;;;;;2.95;1.27;;;38.70;53.40;;;;;;4974249;28;20496;-77
2022/08/12 11:38:04;;;;;;;3.80;1.27;;;38.70;53.70;;;;;;4980574;28;20488;-77
2022/08/12 11:40:30;;;;;;;2.92;1.25;;;39.00;53.60;;;;;;4935819;28;20056;-78
2022/08/12 11:43:00;;;;;;;4.32;1.40;;;38.90;52.70;;;;;;4983179;28;20051;-78
2022/08/12 11:45:27;;;;;;;2.50;1.30;;;39.00;51.80;;;;;;4982266;28;20054;-77
2022/08/12 11:47:58;;;;;;;4.57;1.35;;;39.00;51.70;;;;;;4997102;28;20493;-77
2022/08/12 11:50:24;;;;;;;2.95;1.10;;;39.10;51.90;;;;;;4980276;28;20070;-78
2022/08/12 11:52:50;;;;;;;1.92;1.20;;;39.40;51.80;;;;;;4997706;28;20575;-78
2022/08/12 11:55:17;;;;;;;2.38;1.25;;;39.50;50.80;;;;;;4999085;28;20081;-77
2022/08/12 11:57:55;;;;;;;2.03;1.00;;;39.70;50.70;;;;;;4957128;28;20481;-76
2022/08/12 12:00:21;;;;;;;4.00;1.27;;;39.90;51.20;;;;;;4979756;28;20516;-77
2022/08/12 12:02:47;;;;;;;2.72;1.30;;;39.90;50.50;;;;;;4950103;28;20141;-75
2022/08/12 12:05:15;;;;;;;3.42;1.40;;;39.70;49.20;;;;;;4980851;28;20069;-77
2022/08/12 12:07:42;;;;;;;1.58;1.08;;;39.50;49.50;;;;;;4979565;28;20046;-78
2022/08/12 12:10:13;;;;;;;6.43;1.25;;;39.50;49.70;;;;;;4980918;28;20049;-77
2022/08/12 12:12:39;;;;;;;5.05;1.20;;;39.60;49.50;;;;;;4996406;28;20098;-78
2022/08/12 12:15:05;;;;;;;2.35;1.00;;;39.90;48.80;;;;;;4995310;28;20053;-79
2022/08/12 12:17:35;;;;;;;3.03;1.30;;;40.10;49.40;;;;;;4979634;28;20137;-78
2022/08/12 12:20:03;;;;;;;3.30;1.00;;;40.20;48.40;;;;;;4981031;28;20180;-78
2022/08/12 12:22:28;;;;;;;3.50;1.20;;;40.30;47.70;;;;;;4982579;28;20046;-77
2022/08/12 12:24:54;;;;;;;4.47;1.20;;;40.40;47.50;;;;;;4967872;28;20043;-77
2022/08/12 12:27:20;;;;;;;4.45;1.25;;;40.50;47.10;;;;;;4949948;28;20189;-77
2022/08/12 12:29:46;;;;;;;3.47;1.13;;;40.50;46.70;;;;;;4995853;28;20137;-78
2022/08/12 12:32:13;;;;;;;1.50;0.95;;;40.40;46.70;;;;;;4949776;28;20049;-76
2022/08/12 12:34:39;;;;;;;3.92;1.23;;;40.30;47.00;;;;;;4994347;28;20050;-77
2022/08/12 12:37:06;;;;;;;3.35;1.42;;;40.20;47.30;;;;;;4991786;28;20057;-77
2022/08/12 12:39:31;;;;;;;2.47;0.93;;;40.20;47.40;;;;;;4946867;28;20117;-78
2022/08/12 12:41:57;;;;;;;4.28;1.10;;;40.30;47.40;;;;;;4961156;28;20496;-77
2022/08/12 12:44:23;;;;;;;4.50;1.00;;;40.30;46.80;;;;;;4976012;28;20065;-78
2022/08/12 12:46:49;;;;;;;2.90;1.20;;;40.10;46.50;;;;;;4931277;28;20097;-77
2022/08/12 12:49:15;;;;;;;2.20;1.20;;;40.00;47.40;;;;;;4941816;28;20069;-78
2022/08/12 12:51:40;;;;;;;3.17;1.40;;;40.20;47.70;;;;;;4942163;28;20046;-79
2022/08/12 12:54:08;;;;;;;2.60;1.17;;;40.30;48.20;;;;;;4990098;28;20062;-79
2022/08/12 12:56:34;;;;;;;4.97;1.20;;;40.30;48.50;;;;;;4976701;28;20515;-77
2022/08/12 12:59:01;;;;;;;2.60;1.30;;;40.40;48.70;;;;;;4949388;28;20451;-77
2022/08/12 13:01:27;;;;;;;3.13;1.40;;;40.60;48.60;;;;;;4929721;28;20057;-75
2022/08/12 13:03:55;;;;;;;2.42;1.33;;;40.70;48.30;;;;;;4976076;28;20393;-77
2022/08/12 13:06:28;;;;;;;2.40;1.17;;;40.90;48.80;;;;;;4951628;28;20099;-78
2022/08/12 13:08:58;;;;;;;5.82;1.40;;;40.90;48.40;;;;;;4948817;28;20579;-78
2022/08/12 13:11:24;;;;;;;3.67;1.30;;;41.00;48.20;;;;;;4993482;28;20051;-79
2022/08/12 13:13:52;;;;;;;3.67;1.45;;;41.00;48.20;;;;;;4949061;28;20097;-80
2022/08/12 13:16:21;;;;;;;3.50;1.13;;;40.90;48.00;;;;;;4943294;28;20042;-77
2022/08/12 13:18:48;;;;;;;2.10;1.05;;;40.90;48.20;;;;;;4961457;28;20047;-77
2022/08/12 13:21:17;;;;;;;2.45;1.10;;;40.60;47.60;;;;;;4958691;28;20554;-78
2022/08/12 13:23:46;;;;;;;3.88;1.10;;;40.70;47.90;;;;;;4991586;28;20046;-78
2022/08/12 13:26:14;;;;;;;3.90;1.25;;;40.90;47.80;;;;;;4950126;28;20111;-79
2022/08/12 13:28:46;;;;;;;2.15;1.13;;;41.00;47.60;;;;;;4964814;28;20081;-78
2022/08/12 13:31:15;;;;;;;3.28;1.20;;;41.10;47.40;;;;;;4989703;28;20050;-78
2022/08/12 13:33:41;;;;;;;2.20;1.23;;;41.10;48.00;;;;;;4988159;28;20042;-77
2022/08/12 13:36:09;;;;;;;5.75;1.30;;;41.20;48.50;;;;;;4975874;28;20101;-79
2022/08/12 13:38:39;;;;;;;3.55;1.35;;;41.30;48.40;;;;;;4934514;28;20078;-79
2022/08/12 13:41:10;;;;;;;2.35;1.48;;;41.20;47.80;;;;;;4941764;28;20058;-76
2022/08/12 13:43:35;;;;;;;2.88;1.10;;;41.10;47.70;;;;;;4976417;28;20577;-77
2022/08/12 13:46:01;;;;;;;4.45;1.30;;;41.20;48.20;;;;;;4945951;28;20170;-77
2022/08/12 13:48:28;;;;;;;2.00;1.30;;;41.30;48.20;;;;;;4991373;28;20099;-78
2022/08/12 13:50:56;;;;;;;4.43;1.52;;;41.40;48.30;;;;;;4991435;28;20047;-77
2022/08/12 13:53:21;;;;;;;6.00;1.27;;;41.30;47.80;;;;;;4948044;28;20086;-78
2022/08/12 13:55:50;;;;;;;3.15;1.45;;;41.20;48.00;;;;;;4976871;28;20050;-78
2022/08/12 13:58:18;;;;;;;5.00;1.40;;;41.20;47.70;;;;;;4966213;28;20047;-78
2022/08/12 14:00:47;;;;;;;5.13;1.60;;;41.10;48.10;;;;;;4989436;28;20053;-76
2022/08/12 14:03:13;;;;;;;5.75;1.50;;;41.10;48.30;;;;;;4990787;28;20052;-77
2022/08/12 14:05:39;;;;;;;3.63;1.40;;;41.00;48.70;;;;;;4977254;28;20052;-80
2022/08/12 14:08:10;;;;;;;2.90;1.40;;;40.90;49.30;;;;;;4981126;28;20043;-80
2022/08/12 14:10:38;;;;;;;2.72;1.52;;;40.80;49.90;;;;;;4997975;28;20488;-79
2022/08/12 14:13:16;;;;;;;5.50;1.20;;;40.70;49.80;;;;;;4997396;28;20042;-81
2022/08/12 14:15:46;;;;;;;4.82;1.13;;;40.60;50.00;;;;;;4965321;28;20053;-82
2022/08/12 14:18:20;;;;;;;3.17;1.50;;;40.60;49.90;;;;;;4976466;28;20054;-80
2022/08/12 14:20:52;;;;;;;4.60;1.52;;;40.40;50.10;;;;;;4950582;28;20583;-81
2022/08/12 14:23:21;;;;;;;2.42;1.25;;;40.20;49.80;;;;;;4995048;28;20058;-80
2022/08/12 14:25:49;;;;;;;5.18;1.90;;;40.10;50.50;;;;;;4978920;28;20488;-81
2022/08/12 14:28:17;;;;;;;5.28;1.42;;;40.00;50.70;;;;;;4947019;28;20140;-81
2022/08/12 14:30:52;;;;;;;6.95;1.67;;;40.00;50.90;;;;;;4947993;28;20058;-81
2022/08/12 14:33:39;;;;;;;5.70;1.35;;;40.00;50.90;;;;;;4977077;28;20047;-81
2022/08/12 14:36:10;;;;;;;5.15;1.60;;;39.90;50.90;;;;;;4956845;28;20066;-80
2022/08/12 14:38:42;;;;;;;4.18;1.45;;;39.70;50.70;;;;;;4987589;28;20050;-81
2022/08/12 14:41:10;;;;;;;4.00;1.27;;;39.60;50.70;;;;;;4981917;28;20050;-81
2022/08/12 14:43:37;;;;;;;2.55;1.35;;;39.50;50.80;;;;;;4966725;28;20042;-76
2022/08/12 14:46:05;;;;;;;1.80;1.10;;;39.30;50.40;;;;;;4979178;28;20051;-76
2022/08/12 14:48:32;;;;;;;3.42;1.40;;;39.10;50.20;;;;;;4953373;28;20461;-86
2022/08/12 14:50:59;;;;;;;4.75;1.67;;;39.10;50.40;;;;;;4997269;28;20054;-88